sensor_id;sensor_type;location;lat;lon;timestamp;P1;durP1;ratioP1;P2;durP2;ratioP2
18435;SDS011;9346;52.006;4.720;2023-04-03T00:01:47;1.47;;;0.97;;
18435;SDS011;9346;52.006;4.720;2023-04-03T00:04:14;1.60;;;1.00;;
18435;SDS011;9346;52.006;4.720;2023-04-03T00:06:41;2.53;;;1.10;;
18435;SDS011;9346;52.006;4.720;2023-04-03T00:09:09;2.17;;;1.03;;
18435;SDS011;9346;52.006;4.720;2023-04-03T00:11:36;1.60;;;1.20;;
18435;SDS011;9346;52.006;4.720;2023-04-03T00:14:03;1.57;;;1.03;;
18435;SDS011;9346;52.006;4.720;2023-04-03T00:16:30;2.57;;;0.83;;
18435;SDS011;9346;52.006;4.720;2023-04-03T00:18:57;2.17;;;0.80;;
18435;SDS011;9346;52.006;4.720;2023-04-03T00:21:24;1.13;;;0.80;;
18435;SDS011;9346;52.006;4.720;2023-04-03T00:23:51;3.50;;;1.20;;
18435;SDS011;9346;52.006;4.720;2023-04-03T00:26:19;1.23;;;0.90;;
18435;SDS011;9346;52.006;4.720;2023-04-03T00:28:47;1.23;;;0.90;;
18435;SDS011;9346;52.006;4.720;2023-04-03T00:31:16;1.20;;;0.80;;
18435;SDS011;9346;52.006;4.720;2023-04-03T00:33:43;2.27;;;1.20;;
18435;SDS011;9346;52.006;4.720;2023-04-03T00:36:10;2.23;;;1.30;;
18435;SDS011;9346;52.006;4.720;2023-04-03T00:38:38;3.00;;;1.20;;
18435;SDS011;9346;52.006;4.720;2023-04-03T00:41:06;2.03;;;0.93;;
18435;SDS011;9346;52.006;4.720;2023-04-03T00:43:36;2.93;;;0.70;;
18435;SDS011;9346;52.006;4.720;2023-04-03T00:46:03;2.53;;;1.00;;
18435;SDS011;9346;52.006;4.720;2023-04-03T00:48:30;1.40;;;1.07;;
18435;SDS011;9346;52.006;4.720;2023-04-03T00:50:59;4.83;;;1.37;;
18435;SDS011;9346;52.006;4.720;2023-04-03T00:53:28;1.60;;;1.07;;
18435;SDS011;9346;52.006;4.720;2023-04-03T00:56:00;1.87;;;1.00;;
18435;SDS011;9346;52.006;4.720;2023-04-03T00:58:28;3.03;;;1.20;;
18435;SDS011;9346;52.006;4.720;2023-04-03T01:01:05;2.20;;;1.00;;
18435;SDS011;9346;52.006;4.720;2023-04-03T01:03:37;2.20;;;1.07;;
18435;SDS011;9346;52.006;4.720;2023-04-03T01:06:04;1.30;;;1.20;;
18435;SDS011;9346;52.006;4.720;2023-04-03T01:08:32;4.17;;;1.30;;
18435;SDS011;9346;52.006;4.720;2023-04-03T01:10:59;2.13;;;1.10;;
18435;SDS011;9346;52.006;4.720;2023-04-03T01:13:27;0.97;;;0.77;;
18435;SDS011;9346;52.006;4.720;2023-04-03T01:15:55;7.43;;;1.50;;
18435;SDS011;9346;52.006;4.720;2023-04-03T01:18:25;5.37;;;0.97;;
18435;SDS011;9346;52.006;4.720;2023-04-03T01:23:49;1.60;;;1.00;;
18435;SDS011;9346;52.006;4.720;2023-04-03T01:26:24;1.33;;;1.10;;
18435;SDS011;9346;52.006;4.720;2023-04-03T01:28:53;1.13;;;0.97;;
18435;SDS011;9346;52.006;4.720;2023-04-03T01:31:22;2.87;;;1.20;;
18435;SDS011;9346;52.006;4.720;2023-04-03T01:33:54;1.53;;;1.10;;
18435;SDS011;9346;52.006;4.720;2023-04-03T01:36:22;5.17;;;1.33;;
18435;SDS011;9346;52.006;4.720;2023-04-03T01:38:51;5.87;;;1.20;;
18435;SDS011;9346;52.006;4.720;2023-04-03T01:41:20;2.60;;;1.07;;
18435;SDS011;9346;52.006;4.720;2023-04-03T01:43:47;9.30;;;1.30;;
18435;SDS011;9346;52.006;4.720;2023-04-03T01:46:14;3.63;;;1.00;;
18435;SDS011;9346;52.006;4.720;2023-04-03T01:48:42;5.87;;;1.30;;
18435;SDS011;9346;52.006;4.720;2023-04-03T01:51:11;3.43;;;1.23;;
18435;SDS011;9346;52.006;4.720;2023-04-03T01:53:38;2.53;;;1.10;;
18435;SDS011;9346;52.006;4.720;2023-04-03T01:56:05;2.30;;;1.20;;
18435;SDS011;9346;52.006;4.720;2023-04-03T01:58:32;6.30;;;1.30;;
18435;SDS011;9346;52.006;4.720;2023-04-03T02:00:59;4.43;;;1.13;;
18435;SDS011;9346;52.006;4.720;2023-04-03T02:03:27;2.63;;;1.00;;
18435;SDS011;9346;52.006;4.720;2023-04-03T02:05:54;3.10;;;1.20;;
18435;SDS011;9346;52.006;4.720;2023-04-03T02:08:23;2.47;;;1.00;;
18435;SDS011;9346;52.006;4.720;2023-04-03T02:10:50;3.73;;;1.73;;
18435;SDS011;9346;52.006;4.720;2023-04-03T02:13:17;1.93;;;1.23;;
18435;SDS011;9346;52.006;4.720;2023-04-03T02:15:45;1.50;;;1.23;;
18435;SDS011;9346;52.006;4.720;2023-04-03T02:18:12;2.70;;;1.30;;
18435;SDS011;9346;52.006;4.720;2023-04-03T02:20:39;1.87;;;1.17;;
18435;SDS011;9346;52.006;4.720;2023-04-03T02:23:06;6.50;;;1.43;;
18435;SDS011;9346;52.006;4.720;2023-04-03T02:25:35;3.87;;;1.17;;
18435;SDS011;9346;52.006;4.720;2023-04-03T02:28:02;1.30;;;1.17;;
18435;SDS011;9346;52.006;4.720;2023-04-03T02:30:29;4.23;;;1.03;;
18435;SDS011;9346;52.006;4.720;2023-04-03T02:32:56;2.90;;;1.40;;
18435;SDS011;9346;52.006;4.720;2023-04-03T02:35:23;6.00;;;1.20;;
18435;SDS011;9346;52.006;4.720;2023-04-03T02:37:50;1.50;;;1.00;;
18435;SDS011;9346;52.006;4.720;2023-04-03T02:40:17;1.40;;;1.13;;
18435;SDS011;9346;52.006;4.720;2023-04-03T02:42:46;4.90;;;1.40;;
18435;SDS011;9346;52.006;4.720;2023-04-03T02:45:13;7.10;;;1.00;;
18435;SDS011;9346;52.006;4.720;2023-04-03T02:47:40;3.20;;;1.13;;
18435;SDS011;9346;52.006;4.720;2023-04-03T02:50:07;2.97;;;1.40;;
18435;SDS011;9346;52.006;4.720;2023-04-03T02:52:34;2.27;;;1.00;;
18435;SDS011;9346;52.006;4.720;2023-04-03T02:55:01;9.10;;;1.37;;
18435;SDS011;9346;52.006;4.720;2023-04-03T02:57:28;3.17;;;1.00;;
18435;SDS011;9346;52.006;4.720;2023-04-03T02:59:57;2.37;;;1.97;;
18435;SDS011;9346;52.006;4.720;2023-04-03T03:02:24;3.30;;;1.20;;
18435;SDS011;9346;52.006;4.720;2023-04-03T03:04:50;1.60;;;1.10;;
18435;SDS011;9346;52.006;4.720;2023-04-03T03:07:17;3.83;;;1.20;;
18435;SDS011;9346;52.006;4.720;2023-04-03T03:09:45;2.90;;;1.30;;
18435;SDS011;9346;52.006;4.720;2023-04-03T03:12:11;2.03;;;1.47;;
18435;SDS011;9346;52.006;4.720;2023-04-03T03:14:38;2.17;;;1.57;;
18435;SDS011;9346;52.006;4.720;2023-04-03T03:17:07;1.47;;;1.30;;
18435;SDS011;9346;52.006;4.720;2023-04-03T03:19:33;3.57;;;1.33;;
18435;SDS011;9346;52.006;4.720;2023-04-03T03:22:00;2.27;;;1.50;;
18435;SDS011;9346;52.006;4.720;2023-04-03T03:24:27;7.10;;;1.50;;
18435;SDS011;9346;52.006;4.720;2023-04-03T03:26:55;2.20;;;1.17;;
18435;SDS011;9346;52.006;4.720;2023-04-03T03:29:22;2.23;;;1.50;;
18435;SDS011;9346;52.006;4.720;2023-04-03T03:31:49;1.63;;;1.20;;
18435;SDS011;9346;52.006;4.720;2023-04-03T03:34:17;2.00;;;1.37;;
18435;SDS011;9346;52.006;4.720;2023-04-03T03:36:44;10.10;;;1.70;;
18435;SDS011;9346;52.006;4.720;2023-04-03T03:39:12;2.53;;;1.30;;
18435;SDS011;9346;52.006;4.720;2023-04-03T03:41:39;2.43;;;1.40;;
18435;SDS011;9346;52.006;4.720;2023-04-03T03:44:05;2.10;;;1.50;;
18435;SDS011;9346;52.006;4.720;2023-04-03T03:46:32;5.53;;;1.60;;
18435;SDS011;9346;52.006;4.720;2023-04-03T03:49:00;4.20;;;1.30;;
18435;SDS011;9346;52.006;4.720;2023-04-03T03:51:28;2.37;;;1.40;;
18435;SDS011;9346;52.006;4.720;2023-04-03T03:53:55;2.33;;;1.33;;
18435;SDS011;9346;52.006;4.720;2023-04-03T03:56:22;1.87;;;1.00;;
18435;SDS011;9346;52.006;4.720;2023-04-03T03:58:50;2.00;;;0.90;;
18435;SDS011;9346;52.006;4.720;2023-04-03T04:01:17;2.40;;;1.03;;
18435;SDS011;9346;52.006;4.720;2023-04-03T04:03:44;3.23;;;1.30;;
18435;SDS011;9346;52.006;4.720;2023-04-03T04:06:10;2.57;;;1.80;;
18435;SDS011;9346;52.006;4.720;2023-04-03T04:08:39;1.67;;;1.20;;
18435;SDS011;9346;52.006;4.720;2023-04-03T04:11:06;2.57;;;1.80;;
18435;SDS011;9346;52.006;4.720;2023-04-03T04:13:34;2.50;;;1.53;;
18435;SDS011;9346;52.006;4.720;2023-04-03T04:16:01;2.77;;;1.33;;
18435;SDS011;9346;52.006;4.720;2023-04-03T04:18:28;4.40;;;1.50;;
18435;SDS011;9346;52.006;4.720;2023-04-03T04:20:55;2.50;;;1.50;;
18435;SDS011;9346;52.006;4.720;2023-04-03T04:23:22;4.50;;;1.93;;
18435;SDS011;9346;52.006;4.720;2023-04-03T04:25:50;5.90;;;1.30;;
18435;SDS011;9346;52.006;4.720;2023-04-03T04:28:18;7.70;;;1.63;;
18435;SDS011;9346;52.006;4.720;2023-04-03T04:30:44;4.10;;;1.47;;
18435;SDS011;9346;52.006;4.720;2023-04-03T04:33:11;1.97;;;1.30;;
18435;SDS011;9346;52.006;4.720;2023-04-03T04:35:39;2.67;;;1.50;;
18435;SDS011;9346;52.006;4.720;2023-04-03T04:38:08;5.37;;;1.20;;
18435;SDS011;9346;52.006;4.720;2023-04-03T04:40:35;3.53;;;1.63;;
18435;SDS011;9346;52.006;4.720;2023-04-03T04:43:04;3.77;;;1.63;;
18435;SDS011;9346;52.006;4.720;2023-04-03T04:45:31;2.83;;;1.53;;
18435;SDS011;9346;52.006;4.720;2023-04-03T04:47:58;2.83;;;1.70;;
18435;SDS011;9346;52.006;4.720;2023-04-03T04:50:25;2.70;;;1.27;;
18435;SDS011;9346;52.006;4.720;2023-04-03T04:52:52;1.97;;;1.60;;
18435;SDS011;9346;52.006;4.720;2023-04-03T04:55:18;7.73;;;2.20;;
18435;SDS011;9346;52.006;4.720;2023-04-03T04:57:45;1.70;;;1.40;;
18435;SDS011;9346;52.006;4.720;2023-04-03T05:00:15;3.67;;;1.70;;
18435;SDS011;9346;52.006;4.720;2023-04-03T05:02:43;1.83;;;1.43;;
18435;SDS011;9346;52.006;4.720;2023-04-03T05:05:10;2.60;;;1.27;;
18435;SDS011;9346;52.006;4.720;2023-04-03T05:07:37;2.57;;;1.20;;
18435;SDS011;9346;52.006;4.720;2023-04-03T05:10:04;4.67;;;1.57;;
18435;SDS011;9346;52.006;4.720;2023-04-03T05:12:32;4.13;;;1.53;;
18435;SDS011;9346;52.006;4.720;2023-04-03T05:14:59;2.37;;;1.73;;
18435;SDS011;9346;52.006;4.720;2023-04-03T05:17:28;3.50;;;1.60;;
18435;SDS011;9346;52.006;4.720;2023-04-03T05:19:54;2.27;;;1.97;;
18435;SDS011;9346;52.006;4.720;2023-04-03T05:22:21;2.90;;;1.73;;
18435;SDS011;9346;52.006;4.720;2023-04-03T05:24:48;1.73;;;1.47;;
18435;SDS011;9346;52.006;4.720;2023-04-03T05:27:15;2.17;;;1.57;;
18435;SDS011;9346;52.006;4.720;2023-04-03T05:29:43;2.47;;;1.63;;
18435;SDS011;9346;52.006;4.720;2023-04-03T05:32:10;3.70;;;1.60;;
18435;SDS011;9346;52.006;4.720;2023-04-03T05:37:21;1.80;;;1.50;;
18435;SDS011;9346;52.006;4.720;2023-04-03T05:39:48;3.90;;;2.10;;
18435;SDS011;9346;52.006;4.720;2023-04-03T05:42:16;4.10;;;1.40;;
18435;SDS011;9346;52.006;4.720;2023-04-03T05:44:43;6.10;;;1.73;;
18435;SDS011;9346;52.006;4.720;2023-04-03T05:47:12;7.60;;;1.60;;
18435;SDS011;9346;52.006;4.720;2023-04-03T05:49:41;6.77;;;1.37;;
18435;SDS011;9346;52.006;4.720;2023-04-03T05:52:13;1.97;;;1.50;;
18435;SDS011;9346;52.006;4.720;2023-04-03T05:54:46;2.63;;;1.30;;
18435;SDS011;9346;52.006;4.720;2023-04-03T05:57:13;6.53;;;2.30;;
18435;SDS011;9346;52.006;4.720;2023-04-03T05:59:41;11.67;;;1.60;;
18435;SDS011;9346;52.006;4.720;2023-04-03T06:02:09;2.10;;;1.30;;
18435;SDS011;9346;52.006;4.720;2023-04-03T06:04:37;1.50;;;1.23;;
18435;SDS011;9346;52.006;4.720;2023-04-03T06:07:04;5.63;;;2.13;;
18435;SDS011;9346;52.006;4.720;2023-04-03T06:09:33;3.80;;;1.73;;
18435;SDS011;9346;52.006;4.720;2023-04-03T06:12:00;7.67;;;1.37;;
18435;SDS011;9346;52.006;4.720;2023-04-03T06:14:27;4.70;;;1.80;;
18435;SDS011;9346;52.006;4.720;2023-04-03T06:16:54;5.03;;;1.83;;
18435;SDS011;9346;52.006;4.720;2023-04-03T06:19:21;4.17;;;1.60;;
18435;SDS011;9346;52.006;4.720;2023-04-03T06:21:48;1.67;;;1.53;;
18435;SDS011;9346;52.006;4.720;2023-04-03T06:24:16;4.63;;;1.73;;
18435;SDS011;9346;52.006;4.720;2023-04-03T06:26:45;4.07;;;1.90;;
18435;SDS011;9346;52.006;4.720;2023-04-03T06:29:12;5.63;;;2.07;;
18435;SDS011;9346;52.006;4.720;2023-04-03T06:31:39;2.17;;;1.30;;
18435;SDS011;9346;52.006;4.720;2023-04-03T06:34:05;2.93;;;1.60;;
18435;SDS011;9346;52.006;4.720;2023-04-03T06:36:33;7.00;;;1.97;;
18435;SDS011;9346;52.006;4.720;2023-04-03T06:39:01;7.67;;;1.90;;
18435;SDS011;9346;52.006;4.720;2023-04-03T06:41:28;4.77;;;1.43;;
18435;SDS011;9346;52.006;4.720;2023-04-03T06:43:57;5.90;;;2.50;;
18435;SDS011;9346;52.006;4.720;2023-04-03T06:46:25;4.33;;;1.53;;
18435;SDS011;9346;52.006;4.720;2023-04-03T06:48:53;4.37;;;1.67;;
18435;SDS011;9346;52.006;4.720;2023-04-03T06:51:21;4.90;;;1.97;;
18435;SDS011;9346;52.006;4.720;2023-04-03T06:53:49;7.03;;;1.87;;
18435;SDS011;9346;52.006;4.720;2023-04-03T06:56:19;3.83;;;1.93;;
18435;SDS011;9346;52.006;4.720;2023-04-03T06:58:48;3.17;;;1.73;;
18435;SDS011;9346;52.006;4.720;2023-04-03T07:01:17;2.40;;;1.37;;
18435;SDS011;9346;52.006;4.720;2023-04-03T07:03:45;7.83;;;1.70;;
18435;SDS011;9346;52.006;4.720;2023-04-03T07:06:13;6.23;;;2.43;;
18435;SDS011;9346;52.006;4.720;2023-04-03T07:08:41;3.70;;;1.73;;
18435;SDS011;9346;52.006;4.720;2023-04-03T07:11:09;2.20;;;1.37;;
18435;SDS011;9346;52.006;4.720;2023-04-03T07:13:37;1.87;;;1.30;;
18435;SDS011;9346;52.006;4.720;2023-04-03T07:16:05;2.30;;;1.70;;
18435;SDS011;9346;52.006;4.720;2023-04-03T07:18:35;6.07;;;1.80;;
18435;SDS011;9346;52.006;4.720;2023-04-03T07:21:02;2.90;;;1.57;;
18435;SDS011;9346;52.006;4.720;2023-04-03T07:23:30;3.10;;;1.43;;
18435;SDS011;9346;52.006;4.720;2023-04-03T07:25:57;3.37;;;1.67;;
18435;SDS011;9346;52.006;4.720;2023-04-03T07:28:25;6.30;;;1.60;;
18435;SDS011;9346;52.006;4.720;2023-04-03T07:30:53;5.87;;;1.90;;
18435;SDS011;9346;52.006;4.720;2023-04-03T07:33:22;4.13;;;1.80;;
18435;SDS011;9346;52.006;4.720;2023-04-03T07:35:52;4.30;;;1.47;;
18435;SDS011;9346;52.006;4.720;2023-04-03T07:38:19;1.70;;;1.50;;
18435;SDS011;9346;52.006;4.720;2023-04-03T07:40:46;2.83;;;1.40;;
18435;SDS011;9346;52.006;4.720;2023-04-03T07:43:14;2.60;;;1.10;;
18435;SDS011;9346;52.006;4.720;2023-04-03T07:45:42;4.33;;;1.60;;
18435;SDS011;9346;52.006;4.720;2023-04-03T07:48:10;7.60;;;1.80;;
18435;SDS011;9346;52.006;4.720;2023-04-03T07:50:39;2.83;;;1.30;;
18435;SDS011;9346;52.006;4.720;2023-04-03T07:53:08;2.97;;;1.70;;
18435;SDS011;9346;52.006;4.720;2023-04-03T07:55:35;3.67;;;1.50;;
18435;SDS011;9346;52.006;4.720;2023-04-03T07:58:08;3.77;;;1.23;;
18435;SDS011;9346;52.006;4.720;2023-04-03T08:00:35;5.50;;;1.47;;
18435;SDS011;9346;52.006;4.720;2023-04-03T08:03:03;5.10;;;1.67;;
18435;SDS011;9346;52.006;4.720;2023-04-03T08:05:30;10.47;;;2.43;;
18435;SDS011;9346;52.006;4.720;2023-04-03T08:07:58;7.93;;;1.60;;
18435;SDS011;9346;52.006;4.720;2023-04-03T08:10:26;3.03;;;1.50;;
18435;SDS011;9346;52.006;4.720;2023-04-03T08:12:55;3.27;;;1.50;;
18435;SDS011;9346;52.006;4.720;2023-04-03T08:15:22;5.43;;;2.13;;
18435;SDS011;9346;52.006;4.720;2023-04-03T08:17:50;3.53;;;1.77;;
18435;SDS011;9346;52.006;4.720;2023-04-03T08:20:17;6.27;;;2.00;;
18435;SDS011;9346;52.006;4.720;2023-04-03T08:22:46;1.50;;;1.40;;
18435;SDS011;9346;52.006;4.720;2023-04-03T08:25:13;3.93;;;1.87;;
18435;SDS011;9346;52.006;4.720;2023-04-03T08:27:42;4.23;;;1.43;;
18435;SDS011;9346;52.006;4.720;2023-04-03T08:30:09;2.33;;;1.87;;
18435;SDS011;9346;52.006;4.720;2023-04-03T08:32:37;5.03;;;1.33;;
18435;SDS011;9346;52.006;4.720;2023-04-03T08:35:04;1.87;;;1.23;;
18435;SDS011;9346;52.006;4.720;2023-04-03T08:37:34;2.57;;;1.30;;
18435;SDS011;9346;52.006;4.720;2023-04-03T08:40:01;4.90;;;1.57;;
18435;SDS011;9346;52.006;4.720;2023-04-03T08:42:33;2.30;;;1.27;;
18435;SDS011;9346;52.006;4.720;2023-04-03T08:45:10;2.63;;;1.30;;
18435;SDS011;9346;52.006;4.720;2023-04-03T08:47:42;2.43;;;1.17;;
18435;SDS011;9346;52.006;4.720;2023-04-03T08:50:18;3.37;;;2.03;;
18435;SDS011;9346;52.006;4.720;2023-04-03T08:52:58;2.63;;;1.33;;
18435;SDS011;9346;52.006;4.720;2023-04-03T08:55:26;2.70;;;1.00;;
18435;SDS011;9346;52.006;4.720;2023-04-03T08:57:57;1.70;;;1.00;;
18435;SDS011;9346;52.006;4.720;2023-04-03T09:00:30;3.13;;;1.40;;
18435;SDS011;9346;52.006;4.720;2023-04-03T09:03:01;1.60;;;1.07;;
18435;SDS011;9346;52.006;4.720;2023-04-03T09:05:32;3.30;;;1.40;;
18435;SDS011;9346;52.006;4.720;2023-04-03T09:08:07;4.87;;;1.40;;
18435;SDS011;9346;52.006;4.720;2023-04-03T09:10:44;5.33;;;1.07;;
18435;SDS011;9346;52.006;4.720;2023-04-03T09:13:12;1.20;;;1.00;;
18435;SDS011;9346;52.006;4.720;2023-04-03T09:15:48;1.10;;;1.00;;
18435;SDS011;9346;52.006;4.720;2023-04-03T09:18:16;1.10;;;0.77;;
18435;SDS011;9346;52.006;4.720;2023-04-03T09:20:49;1.30;;;0.80;;
18435;SDS011;9346;52.006;4.720;2023-04-03T09:23:26;1.97;;;0.97;;
18435;SDS011;9346;52.006;4.720;2023-04-03T09:25:58;1.57;;;0.77;;
18435;SDS011;9346;52.006;4.720;2023-04-03T09:28:31;3.60;;;0.70;;
18435;SDS011;9346;52.006;4.720;2023-04-03T09:31:05;0.97;;;0.70;;
18435;SDS011;9346;52.006;4.720;2023-04-03T09:33:45;1.70;;;0.73;;
18435;SDS011;9346;52.006;4.720;2023-04-03T09:36:12;0.70;;;0.70;;
18435;SDS011;9346;52.006;4.720;2023-04-03T09:38:39;1.13;;;0.90;;
18435;SDS011;9346;52.006;4.720;2023-04-03T09:41:12;0.70;;;0.67;;
18435;SDS011;9346;52.006;4.720;2023-04-03T09:43:43;2.67;;;0.80;;
18435;SDS011;9346;52.006;4.720;2023-04-03T09:46:28;1.73;;;0.80;;
18435;SDS011;9346;52.006;4.720;2023-04-03T09:48:57;2.83;;;0.90;;
18435;SDS011;9346;52.006;4.720;2023-04-03T09:51:26;0.77;;;0.70;;
18435;SDS011;9346;52.006;4.720;2023-04-03T09:53:54;2.70;;;1.13;;
18435;SDS011;9346;52.006;4.720;2023-04-03T09:56:23;1.57;;;0.77;;
18435;SDS011;9346;52.006;4.720;2023-04-03T09:58:52;0.93;;;0.67;;
18435;SDS011;9346;52.006;4.720;2023-04-03T10:01:36;1.03;;;0.70;;
18435;SDS011;9346;52.006;4.720;2023-04-03T10:04:06;1.20;;;0.80;;
18435;SDS011;9346;52.006;4.720;2023-04-03T10:06:36;0.87;;;0.73;;
18435;SDS011;9346;52.006;4.720;2023-04-03T10:09:06;0.87;;;0.60;;
18435;SDS011;9346;52.006;4.720;2023-04-03T10:11:56;0.70;;;0.70;;
18435;SDS011;9346;52.006;4.720;2023-04-03T10:14:26;1.70;;;0.70;;
18435;SDS011;9346;52.006;4.720;2023-04-03T10:16:56;0.50;;;0.50;;
18435;SDS011;9346;52.006;4.720;2023-04-03T10:19:32;0.90;;;0.47;;
18435;SDS011;9346;52.006;4.720;2023-04-03T10:22:04;0.83;;;0.60;;
18435;SDS011;9346;52.006;4.720;2023-04-03T10:24:39;0.67;;;0.60;;
18435;SDS011;9346;52.006;4.720;2023-04-03T10:27:16;1.07;;;0.53;;
18435;SDS011;9346;52.006;4.720;2023-04-03T10:29:49;2.13;;;0.43;;
18435;SDS011;9346;52.006;4.720;2023-04-03T10:35:25;1.23;;;0.53;;
18435;SDS011;9346;52.006;4.720;2023-04-03T10:38:04;0.60;;;0.40;;
18435;SDS011;9346;52.006;4.720;2023-04-03T10:40:39;0.60;;;0.50;;
18435;SDS011;9346;52.006;4.720;2023-04-03T10:43:16;4.40;;;1.00;;
18435;SDS011;9346;52.006;4.720;2023-04-03T10:45:55;2.73;;;0.80;;
18435;SDS011;9346;52.006;4.720;2023-04-03T10:48:33;0.93;;;0.47;;
18435;SDS011;9346;52.006;4.720;2023-04-03T10:51:10;0.40;;;0.40;;
18435;SDS011;9346;52.006;4.720;2023-04-03T10:53:50;0.77;;;0.57;;
18435;SDS011;9346;52.006;4.720;2023-04-03T10:56:22;2.33;;;0.90;;
18435;SDS011;9346;52.006;4.720;2023-04-03T10:59:00;0.87;;;0.50;;
18435;SDS011;9346;52.006;4.720;2023-04-03T11:01:35;1.10;;;0.50;;
18435;SDS011;9346;52.006;4.720;2023-04-03T11:04:07;1.03;;;0.60;;
18435;SDS011;9346;52.006;4.720;2023-04-03T11:06:36;0.43;;;0.40;;
18435;SDS011;9346;52.006;4.720;2023-04-03T11:09:07;0.90;;;0.40;;
18435;SDS011;9346;52.006;4.720;2023-04-03T11:11:44;0.37;;;0.37;;
18435;SDS011;9346;52.006;4.720;2023-04-03T11:14:14;0.40;;;0.37;;
18435;SDS011;9346;52.006;4.720;2023-04-03T11:16:50;2.20;;;0.70;;
18435;SDS011;9346;52.006;4.720;2023-04-03T11:19:28;0.60;;;0.30;;
18435;SDS011;9346;52.006;4.720;2023-04-03T11:22:02;1.23;;;0.50;;
18435;SDS011;9346;52.006;4.720;2023-04-03T11:24:36;2.10;;;0.50;;
18435;SDS011;9346;52.006;4.720;2023-04-03T11:27:08;0.57;;;0.30;;
18435;SDS011;9346;52.006;4.720;2023-04-03T11:29:43;0.43;;;0.30;;
18435;SDS011;9346;52.006;4.720;2023-04-03T11:32:21;0.40;;;0.40;;
18435;SDS011;9346;52.006;4.720;2023-04-03T11:35:02;1.27;;;0.40;;
18435;SDS011;9346;52.006;4.720;2023-04-03T11:37:34;0.37;;;0.37;;
18435;SDS011;9346;52.006;4.720;2023-04-03T11:40:05;0.87;;;0.30;;
18435;SDS011;9346;52.006;4.720;2023-04-03T11:42:36;1.60;;;0.80;;
18435;SDS011;9346;52.006;4.720;2023-04-03T11:45:23;0.43;;;0.27;;
18435;SDS011;9346;52.006;4.720;2023-04-03T11:47:56;4.83;;;0.60;;
18435;SDS011;9346;52.006;4.720;2023-04-03T11:50:38;0.97;;;0.50;;
18435;SDS011;9346;52.006;4.720;2023-04-03T11:55:56;1.00;;;0.50;;
18435;SDS011;9346;52.006;4.720;2023-04-03T11:58:26;2.87;;;0.40;;
18435;SDS011;9346;52.006;4.720;2023-04-03T12:00:56;1.40;;;0.30;;
18435;SDS011;9346;52.006;4.720;2023-04-03T12:12:33;0.40;;;0.40;;
18435;SDS011;9346;52.006;4.720;2023-04-03T12:21:17;2.03;;;0.50;;
18435;SDS011;9346;52.006;4.720;2023-04-03T12:23:57;1.20;;;0.60;;
18435;SDS011;9346;52.006;4.720;2023-04-03T12:29:17;1.47;;;0.67;;
18435;SDS011;9346;52.006;4.720;2023-04-03T12:31:50;1.93;;;0.60;;
18435;SDS011;9346;52.006;4.720;2023-04-03T12:34:38;0.97;;;0.60;;
18435;SDS011;9346;52.006;4.720;2023-04-03T12:37:20;2.10;;;0.77;;
18435;SDS011;9346;52.006;4.720;2023-04-03T12:40:00;1.30;;;0.90;;
18435;SDS011;9346;52.006;4.720;2023-04-03T12:42:40;2.43;;;0.60;;
18435;SDS011;9346;52.006;4.720;2023-04-03T12:45:25;1.67;;;0.90;;
18435;SDS011;9346;52.006;4.720;2023-04-03T12:47:53;2.57;;;0.90;;
18435;SDS011;9346;52.006;4.720;2023-04-03T12:50:22;1.10;;;1.00;;
18435;SDS011;9346;52.006;4.720;2023-04-03T12:52:53;1.27;;;0.83;;
18435;SDS011;9346;52.006;4.720;2023-04-03T12:55:24;1.90;;;0.70;;
18435;SDS011;9346;52.006;4.720;2023-04-03T12:57:53;1.53;;;1.00;;
18435;SDS011;9346;52.006;4.720;2023-04-03T13:03:04;1.33;;;0.70;;
18435;SDS011;9346;52.006;4.720;2023-04-03T13:05:32;2.70;;;1.10;;
18435;SDS011;9346;52.006;4.720;2023-04-03T13:08:02;2.60;;;0.73;;
18435;SDS011;9346;52.006;4.720;2023-04-03T13:10:30;1.33;;;0.77;;
18435;SDS011;9346;52.006;4.720;2023-04-03T13:13:07;1.03;;;0.70;;
18435;SDS011;9346;52.006;4.720;2023-04-03T13:15:42;2.73;;;0.73;;
18435;SDS011;9346;52.006;4.720;2023-04-03T13:18:21;1.33;;;1.00;;
18435;SDS011;9346;52.006;4.720;2023-04-03T13:20:49;1.73;;;1.00;;
18435;SDS011;9346;52.006;4.720;2023-04-03T13:23:17;1.43;;;0.90;;
18435;SDS011;9346;52.006;4.720;2023-04-03T13:25:48;0.87;;;0.77;;
18435;SDS011;9346;52.006;4.720;2023-04-03T13:28:19;0.93;;;0.83;;
18435;SDS011;9346;52.006;4.720;2023-04-03T13:30:56;1.57;;;0.67;;
18435;SDS011;9346;52.006;4.720;2023-04-03T13:33:28;2.20;;;0.63;;
18435;SDS011;9346;52.006;4.720;2023-04-03T13:36:16;0.67;;;0.53;;
18435;SDS011;9346;52.006;4.720;2023-04-03T13:38:44;0.77;;;0.67;;
18435;SDS011;9346;52.006;4.720;2023-04-03T13:41:23;1.60;;;0.87;;
18435;SDS011;9346;52.006;4.720;2023-04-03T13:43:53;0.87;;;0.53;;
18435;SDS011;9346;52.006;4.720;2023-04-03T13:46:25;1.13;;;0.83;;
18435;SDS011;9346;52.006;4.720;2023-04-03T13:48:53;3.20;;;1.20;;
18435;SDS011;9346;52.006;4.720;2023-04-03T13:51:23;2.00;;;0.97;;
18435;SDS011;9346;52.006;4.720;2023-04-03T13:53:55;1.30;;;0.77;;
18435;SDS011;9346;52.006;4.720;2023-04-03T13:56:25;1.10;;;0.60;;
18435;SDS011;9346;52.006;4.720;2023-04-03T13:58:59;0.70;;;0.70;;
18435;SDS011;9346;52.006;4.720;2023-04-03T14:01:37;0.63;;;0.57;;
18435;SDS011;9346;52.006;4.720;2023-04-03T14:04:13;2.03;;;0.73;;
18435;SDS011;9346;52.006;4.720;2023-04-03T14:06:43;1.20;;;0.70;;
18435;SDS011;9346;52.006;4.720;2023-04-03T14:09:11;1.00;;;0.77;;
18435;SDS011;9346;52.006;4.720;2023-04-03T14:11:39;1.83;;;0.80;;
18435;SDS011;9346;52.006;4.720;2023-04-03T14:14:11;5.03;;;1.30;;
18435;SDS011;9346;52.006;4.720;2023-04-03T14:16:41;3.70;;;0.90;;
18435;SDS011;9346;52.006;4.720;2023-04-03T14:19:14;0.70;;;0.60;;
18435;SDS011;9346;52.006;4.720;2023-04-03T14:21:51;0.60;;;0.60;;
18435;SDS011;9346;52.006;4.720;2023-04-03T14:24:21;1.50;;;0.50;;
18435;SDS011;9346;52.006;4.720;2023-04-03T14:26:49;0.80;;;0.57;;
18435;SDS011;9346;52.006;4.720;2023-04-03T14:29:22;6.67;;;0.77;;
18435;SDS011;9346;52.006;4.720;2023-04-03T14:31:49;2.40;;;1.00;;
18435;SDS011;9346;52.006;4.720;2023-04-03T14:34:16;2.10;;;0.90;;
18435;SDS011;9346;52.006;4.720;2023-04-03T14:36:44;2.23;;;0.83;;
18435;SDS011;9346;52.006;4.720;2023-04-03T14:39:15;1.87;;;0.90;;
18435;SDS011;9346;52.006;4.720;2023-04-03T14:41:44;0.53;;;0.53;;
18435;SDS011;9346;52.006;4.720;2023-04-03T14:44:12;3.17;;;0.70;;
18435;SDS011;9346;52.006;4.720;2023-04-03T14:46:41;1.63;;;0.60;;
18435;SDS011;9346;52.006;4.720;2023-04-03T14:49:12;1.10;;;0.77;;
18435;SDS011;9346;52.006;4.720;2023-04-03T14:51:41;1.43;;;0.90;;
18435;SDS011;9346;52.006;4.720;2023-04-03T14:54:11;0.80;;;0.50;;
18435;SDS011;9346;52.006;4.720;2023-04-03T14:56:41;1.33;;;0.90;;
18435;SDS011;9346;52.006;4.720;2023-04-03T14:59:09;0.60;;;0.60;;
18435;SDS011;9346;52.006;4.720;2023-04-03T15:01:41;2.33;;;1.10;;
18435;SDS011;9346;52.006;4.720;2023-04-03T15:04:10;1.60;;;1.00;;
18435;SDS011;9346;52.006;4.720;2023-04-03T15:06:38;0.97;;;0.50;;
18435;SDS011;9346;52.006;4.720;2023-04-03T15:09:17;1.77;;;1.10;;
18435;SDS011;9346;52.006;4.720;2023-04-03T15:11:47;0.77;;;0.50;;
18435;SDS011;9346;52.006;4.720;2023-04-03T15:14:14;1.27;;;0.90;;
18435;SDS011;9346;52.006;4.720;2023-04-03T15:16:43;1.53;;;0.80;;
18435;SDS011;9346;52.006;4.720;2023-04-03T15:19:10;2.90;;;1.10;;
18435;SDS011;9346;52.006;4.720;2023-04-03T15:21:38;1.03;;;0.60;;
18435;SDS011;9346;52.006;4.720;2023-04-03T15:24:08;1.90;;;1.10;;
18435;SDS011;9346;52.006;4.720;2023-04-03T15:26:36;1.27;;;0.97;;
18435;SDS011;9346;52.006;4.720;2023-04-03T15:29:03;1.23;;;1.03;;
18435;SDS011;9346;52.006;4.720;2023-04-03T15:31:30;2.00;;;0.97;;
18435;SDS011;9346;52.006;4.720;2023-04-03T15:33:59;2.40;;;1.00;;
18435;SDS011;9346;52.006;4.720;2023-04-03T15:36:26;2.63;;;0.83;;
18435;SDS011;9346;52.006;4.720;2023-04-03T15:38:53;1.17;;;0.93;;
18435;SDS011;9346;52.006;4.720;2023-04-03T15:41:20;1.47;;;0.60;;
18435;SDS011;9346;52.006;4.720;2023-04-03T15:43:47;3.37;;;1.07;;
18435;SDS011;9346;52.006;4.720;2023-04-03T15:46:14;1.77;;;1.17;;
18435;SDS011;9346;52.006;4.720;2023-04-03T15:48:42;2.80;;;1.10;;